createdAt,value
2023-05-15T00:01:29.144Z,97.50
2023-05-15T00:06:32.401Z,98.30
2023-05-15T00:11:36.112Z,98.80
2023-05-15T00:16:41.308Z,99.00
2023-05-15T00:21:45.126Z,99.30
2023-05-15T00:26:48.397Z,99.40
2023-05-15T00:31:53.476Z,99.90
2023-05-15T00:36:57.170Z,99.90
2023-05-15T00:42:02.368Z,99.90
2023-05-15T00:47:08.303Z,99.90
2023-05-15T00:52:12.339Z,99.90
2023-05-15T00:57:17.048Z,99.90
2023-05-15T01:02:21.744Z,99.90
2023-05-15T01:07:25.164Z,99.90
2023-05-15T01:12:31.004Z,99.90
2023-05-15T01:17:35.725Z,99.90
2023-05-15T01:23:07.227Z,99.90
2023-05-15T01:28:15.451Z,99.90
2023-05-15T01:33:24.090Z,99.90
2023-05-15T01:38:35.911Z,99.90
2023-05-15T01:43:43.699Z,99.90
2023-05-15T01:48:49.353Z,99.90
2023-05-15T01:53:53.150Z,99.90
2023-05-15T01:59:00.215Z,99.90
2023-05-15T02:04:05.906Z,99.90
2023-05-15T02:09:10.600Z,99.90
2023-05-15T02:14:17.368Z,99.90
2023-05-15T02:19:20.723Z,99.90
2023-05-15T02:24:24.425Z,99.90
2023-05-15T02:29:36.627Z,99.90
2023-05-15T02:34:48.761Z,99.90
2023-05-15T02:39:54.653Z,99.90
2023-05-15T02:45:00.141Z,99.90
2023-05-15T02:50:04.185Z,99.90
2023-05-15T02:55:10.665Z,99.90
2023-05-15T03:00:17.674Z,99.90
2023-05-15T03:05:21.384Z,99.90
2023-05-15T03:10:24.767Z,99.90
2023-05-15T03:15:29.375Z,99.90
2023-05-15T03:20:32.644Z,99.90
2023-05-15T03:25:35.867Z,99.90
2023-05-15T03:30:40.453Z,99.90
2023-05-15T03:35:44.728Z,99.90
2023-05-15T03:40:50.231Z,99.90
2023-05-15T03:45:55.766Z,99.90
2023-05-15T03:51:00.433Z,99.90
2023-05-15T03:56:07.465Z,99.90
2023-05-15T04:01:12.613Z,99.90
2023-05-15T04:06:16.286Z,99.90
2023-05-15T04:11:19.522Z,99.90
2023-05-15T04:16:24.108Z,99.90
2023-05-15T04:21:27.337Z,99.90
2023-05-15T04:26:34.395Z,99.90
2023-05-15T04:31:39.620Z,99.90
2023-05-15T04:36:43.313Z,99.90
2023-05-15T04:41:46.699Z,99.90
2023-05-15T04:46:51.292Z,99.90
2023-05-15T04:51:54.556Z,99.90
2023-05-15T04:56:57.872Z,99.90
2023-05-15T05:02:03.320Z,99.90
2023-05-15T05:07:06.983Z,99.90
2023-05-15T05:12:11.833Z,99.90
2023-05-15T05:17:16.964Z,99.90
2023-05-15T05:22:20.630Z,99.90
2023-05-15T05:27:23.868Z,99.90
2023-05-15T05:32:28.614Z,99.90
2023-05-15T05:37:31.874Z,99.90
2023-05-15T05:42:35.129Z,99.90
2023-05-15T05:47:39.738Z,99.50
2023-05-15T05:52:43.151Z,98.70
2023-05-15T05:57:46.388Z,98.00
2023-05-15T06:02:53.086Z,97.50
2023-05-15T06:07:57.024Z,96.70
2023-05-15T06:13:00.353Z,95.90
2023-05-15T06:18:07.169Z,95.20
2023-05-15T06:23:10.251Z,94.60
2023-05-15T06:28:13.784Z,93.90
2023-05-15T06:33:18.528Z,93.60
2023-05-15T06:38:21.771Z,93.30
2023-05-15T06:43:25.020Z,93.20
2023-05-15T06:48:29.646Z,93.10
2023-05-15T06:53:33.252Z,93.20
2023-05-15T06:58:36.460Z,93.20
2023-05-15T07:03:42.958Z,93.20
2023-05-15T07:08:46.657Z,93.50
2023-05-15T07:13:50.799Z,93.60
2023-05-15T07:18:56.399Z,93.60
2023-05-15T07:23:59.691Z,93.40
2023-05-15T07:29:04.174Z,93.40
2023-05-15T07:34:09.082Z,93.20
2023-05-15T07:39:12.499Z,92.90
2023-05-15T07:44:15.768Z,92.80
2023-05-15T07:49:20.310Z,92.50
2023-05-15T07:54:23.454Z,91.90
2023-05-15T07:59:27.269Z,91.10
2023-05-15T08:04:32.379Z,90.70
2023-05-15T08:09:35.632Z,89.80
2023-05-15T08:14:38.946Z,88.10
2023-05-15T08:19:43.768Z,86.40
2023-05-15T08:24:47.063Z,84.20
2023-05-15T08:29:50.339Z,83.20
2023-05-15T08:34:54.935Z,81.40
2023-05-15T08:39:58.112Z,78.80
2023-05-15T08:45:02.166Z,76.40
2023-05-15T08:50:10.972Z,75.30
2023-05-15T08:55:15.397Z,72.50
2023-05-15T09:00:21.065Z,71.30
2023-05-15T09:05:25.863Z,69.20
2023-05-15T09:10:31.022Z,67.40
2023-05-15T09:15:34.527Z,66.50
2023-05-15T09:20:39.886Z,64.80
2023-05-15T09:25:45.070Z,64.40
2023-05-15T09:30:48.723Z,64.40
2023-05-15T09:35:53.712Z,64.00
2023-05-15T09:41:04.322Z,63.80
2023-05-15T09:46:09.614Z,62.90
2023-05-15T09:51:19.055Z,61.80
2023-05-15T09:56:23.442Z,60.20
2023-05-15T10:01:28.067Z,60.20
2023-05-15T10:06:38.606Z,60.40
2023-05-15T10:11:44.822Z,60.40
2023-05-15T10:16:48.581Z,60.60
2023-05-15T10:21:57.543Z,60.10
2023-05-15T10:27:02.132Z,60.10
2023-05-15T10:32:06.531Z,59.30
2023-05-15T10:37:12.493Z,58.60
2023-05-15T10:42:17.217Z,57.90
2023-05-15T10:47:21.017Z,56.80
2023-05-15T10:52:26.133Z,56.20
2023-05-15T10:57:30.468Z,56.10
2023-05-15T11:02:40.198Z,54.60
2023-05-15T11:07:45.386Z,54.20
2023-05-15T11:12:59.522Z,54.40
2023-05-15T11:18:08.228Z,53.20
2023-05-15T11:23:13.328Z,53.10
2023-05-15T11:28:23.693Z,53.20
2023-05-15T11:33:31.745Z,52.90
2023-05-15T11:38:41.374Z,53.00
2023-05-15T11:43:45.068Z,52.60
2023-05-15T11:48:49.673Z,52.80
2023-05-15T11:53:58.143Z,52.40
2023-05-15T11:59:02.789Z,52.80
2023-05-15T12:04:14.323Z,53.50
2023-05-15T12:09:23.028Z,54.40
2023-05-15T12:14:30.191Z,55.20
2023-05-15T12:19:35.340Z,55.70
2023-05-15T12:24:44.759Z,56.60
2023-05-15T12:29:48.600Z,56.50
2023-05-15T12:34:52.047Z,55.70
2023-05-15T12:39:58.708Z,55.00
2023-05-15T12:45:02.420Z,54.10
2023-05-15T12:50:14.698Z,53.20
2023-05-15T12:55:23.778Z,52.10
2023-05-15T13:00:27.897Z,50.90
2023-05-15T13:05:34.701Z,50.30
2023-05-15T13:10:39.961Z,50.20
2023-05-15T13:15:45.063Z,50.40
2023-05-15T13:20:50.613Z,50.20
2023-05-15T13:25:55.787Z,50.10
2023-05-15T13:30:59.558Z,50.30
2023-05-15T13:36:03.271Z,50.80
2023-05-15T13:41:08.166Z,52.30
2023-05-15T13:46:11.664Z,54.70
2023-05-15T13:51:15.284Z,64.30
2023-05-15T13:56:20.245Z,66.30
2023-05-15T14:01:23.870Z,66.80
2023-05-15T14:06:28.000Z,68.90
2023-05-15T14:11:34.998Z,90.30
2023-05-15T14:16:38.654Z,99.90
2023-05-15T14:21:42.340Z,99.90
2023-05-15T14:26:47.473Z,99.90
2023-05-15T14:31:51.097Z,99.90
2023-05-15T14:36:54.714Z,99.90
2023-05-15T14:41:59.532Z,99.90
2023-05-15T14:47:10.359Z,99.90
2023-05-15T14:52:13.899Z,99.90
2023-05-15T14:57:20.760Z,99.90
2023-05-15T15:02:24.297Z,99.40
2023-05-15T15:07:30.907Z,92.90
2023-05-15T15:12:35.904Z,85.30
2023-05-15T15:17:39.488Z,79.50
2023-05-15T15:22:43.073Z,76.30
2023-05-15T15:27:48.891Z,73.60
2023-05-15T15:32:52.755Z,73.00
2023-05-15T15:37:56.799Z,72.00
2023-05-15T15:43:02.080Z,70.30
2023-05-15T15:48:06.065Z,69.70
2023-05-15T15:53:09.697Z,68.20
2023-05-15T15:58:14.814Z,65.80
2023-05-15T16:03:18.382Z,64.10
2023-05-15T16:08:22.247Z,62.90
2023-05-15T16:13:27.324Z,62.60
2023-05-15T16:18:30.945Z,62.30
2023-05-15T16:23:35.689Z,62.40
2023-05-15T16:28:40.832Z,62.20
2023-05-15T16:33:43.930Z,61.70
2023-05-15T16:38:47.416Z,61.90
2023-05-15T16:43:52.366Z,61.70
2023-05-15T16:48:55.802Z,60.50
2023-05-15T16:54:00.057Z,59.60
2023-05-15T16:59:05.124Z,58.80
2023-05-15T17:04:08.982Z,58.90
2023-05-15T17:09:12.625Z,59.30
2023-05-15T17:14:17.727Z,59.20
2023-05-15T17:19:21.424Z,59.10
2023-05-15T17:24:25.028Z,59.60
2023-05-15T17:29:30.074Z,59.90
2023-05-15T17:34:33.583Z,60.10
2023-05-15T17:39:37.365Z,60.60
2023-05-15T17:44:42.402Z,60.50
2023-05-15T17:49:45.839Z,60.00
2023-05-15T17:54:49.465Z,59.00
2023-05-15T17:59:54.449Z,58.90
2023-05-15T18:04:57.837Z,59.60
2023-05-15T18:10:01.484Z,59.90
2023-05-15T18:15:07.215Z,59.80
2023-05-15T18:20:12.024Z,60.20
2023-05-15T18:25:15.713Z,60.70
2023-05-15T18:30:20.801Z,61.10
2023-05-15T18:35:24.893Z,61.60
2023-05-15T18:40:28.876Z,62.00
2023-05-15T18:45:33.859Z,62.50
2023-05-15T18:50:37.529Z,62.80
2023-05-15T18:55:41.132Z,63.00
2023-05-15T19:00:46.255Z,63.40
2023-05-15T19:05:50.050Z,63.70
2023-05-15T19:10:53.835Z,64.10
2023-05-15T19:15:58.760Z,64.60
2023-05-15T19:21:02.276Z,64.90
2023-05-15T19:26:05.977Z,65.30
2023-05-15T19:31:20.434Z,65.80
2023-05-15T19:36:34.275Z,66.20
2023-05-15T19:41:38.023Z,66.80
2023-05-15T19:46:43.130Z,67.90
2023-05-15T19:51:46.831Z,67.90
2023-05-15T19:56:50.119Z,68.40
2023-05-15T20:01:55.096Z,68.90
2023-05-15T20:06:58.713Z,69.40
2023-05-15T20:12:03.107Z,69.80
2023-05-15T20:17:08.152Z,70.30
2023-05-15T20:22:11.733Z,70.80
2023-05-15T20:27:15.337Z,71.50
2023-05-15T20:32:20.424Z,72.30
2023-05-15T20:37:27.973Z,73.10
2023-05-15T20:42:32.434Z,74.00
2023-05-15T20:47:37.442Z,74.60
2023-05-15T20:52:41.178Z,75.10
2023-05-15T20:57:45.182Z,75.70
2023-05-15T21:02:50.145Z,76.40
2023-05-15T21:07:53.720Z,76.90
2023-05-15T21:12:59.384Z,77.70
2023-05-15T21:18:04.888Z,78.50
2023-05-15T21:23:08.792Z,79.20
2023-05-15T21:28:12.307Z,80.00
2023-05-15T21:33:17.245Z,81.00
2023-05-15T21:38:21.026Z,82.20
2023-05-15T21:43:24.641Z,82.90
2023-05-15T21:48:29.258Z,83.90
2023-05-15T21:53:32.452Z,84.70
2023-05-15T21:58:35.667Z,85.50
2023-05-15T22:03:40.343Z,86.30
2023-05-15T22:08:43.813Z,87.20
2023-05-15T22:13:47.048Z,88.10
2023-05-15T22:18:54.032Z,89.10
2023-05-15T22:23:57.313Z,89.60
2023-05-15T22:29:00.706Z,90.10
2023-05-15T22:34:05.406Z,90.40
2023-05-15T22:39:08.935Z,90.70
2023-05-15T22:44:12.136Z,91.10
2023-05-15T22:49:19.295Z,91.30
2023-05-15T22:54:23.297Z,91.60
2023-05-15T22:59:27.133Z,91.80
2023-05-15T23:04:31.912Z,92.30
2023-05-15T23:09:35.671Z,92.60
2023-05-15T23:14:38.940Z,92.90
2023-05-15T23:19:43.934Z,93.20
2023-05-15T23:24:47.379Z,93.50
2023-05-15T23:29:50.981Z,93.80
2023-05-15T23:34:57.191Z,94.00
2023-05-15T23:40:00.543Z,94.30
2023-05-15T23:45:03.782Z,94.50
2023-05-15T23:50:09.758Z,94.80
2023-05-15T23:55:13.643Z,95.00
